sensor_id;sensor_type;location;lat;lon;timestamp;P1;durP1;ratioP1;P2;durP2;ratioP2
15818;SDS011;8010;53.986;12.106;2022-11-09T00:02:23;1.97;;;0.90;;
15818;SDS011;8010;53.986;12.106;2022-11-09T00:04:48;2.57;;;1.10;;
15818;SDS011;8010;53.986;12.106;2022-11-09T00:07:14;3.73;;;0.90;;
15818;SDS011;8010;53.986;12.106;2022-11-09T00:09:39;2.00;;;1.00;;
15818;SDS011;8010;53.986;12.106;2022-11-09T00:12:05;2.53;;;1.20;;
15818;SDS011;8010;53.986;12.106;2022-11-09T00:14:32;1.37;;;1.10;;
15818;SDS011;8010;53.986;12.106;2022-11-09T00:16:58;1.50;;;1.00;;
15818;SDS011;8010;53.986;12.106;2022-11-09T00:19:24;1.93;;;0.83;;
15818;SDS011;8010;53.986;12.106;2022-11-09T00:21:50;3.97;;;1.10;;
15818;SDS011;8010;53.986;12.106;2022-11-09T00:24:15;1.70;;;1.03;;
15818;SDS011;8010;53.986;12.106;2022-11-09T00:26:41;2.10;;;1.10;;
15818;SDS011;8010;53.986;12.106;2022-11-09T00:29:06;2.60;;;1.00;;
15818;SDS011;8010;53.986;12.106;2022-11-09T00:31:32;3.27;;;1.03;;
15818;SDS011;8010;53.986;12.106;2022-11-09T00:33:57;3.00;;;0.90;;
15818;SDS011;8010;53.986;12.106;2022-11-09T00:36:24;3.73;;;1.10;;
15818;SDS011;8010;53.986;12.106;2022-11-09T00:38:51;3.93;;;1.40;;
15818;SDS011;8010;53.986;12.106;2022-11-09T00:41:19;1.50;;;1.00;;
15818;SDS011;8010;53.986;12.106;2022-11-09T00:43:46;1.50;;;1.00;;
15818;SDS011;8010;53.986;12.106;2022-11-09T00:46:12;2.33;;;1.10;;
15818;SDS011;8010;53.986;12.106;2022-11-09T00:48:38;2.80;;;1.10;;
15818;SDS011;8010;53.986;12.106;2022-11-09T00:51:03;4.10;;;1.23;;
15818;SDS011;8010;53.986;12.106;2022-11-09T00:53:29;1.73;;;1.00;;
15818;SDS011;8010;53.986;12.106;2022-11-09T00:55:57;1.00;;;0.90;;
15818;SDS011;8010;53.986;12.106;2022-11-09T00:58:24;1.47;;;1.00;;
15818;SDS011;8010;53.986;12.106;2022-11-09T01:00:54;1.37;;;1.00;;
15818;SDS011;8010;53.986;12.106;2022-11-09T01:03:21;1.30;;;0.87;;
15818;SDS011;8010;53.986;12.106;2022-11-09T01:05:47;1.30;;;0.90;;
15818;SDS011;8010;53.986;12.106;2022-11-09T01:08:12;1.27;;;1.13;;
15818;SDS011;8010;53.986;12.106;2022-11-09T01:10:39;1.10;;;0.80;;
15818;SDS011;8010;53.986;12.106;2022-11-09T01:13:09;2.13;;;0.90;;
15818;SDS011;8010;53.986;12.106;2022-11-09T01:15:40;2.03;;;0.90;;
15818;SDS011;8010;53.986;12.106;2022-11-09T01:18:09;1.90;;;0.80;;
15818;SDS011;8010;53.986;12.106;2022-11-09T01:20:42;3.03;;;1.10;;
15818;SDS011;8010;53.986;12.106;2022-11-09T01:23:09;1.30;;;1.00;;
15818;SDS011;8010;53.986;12.106;2022-11-09T01:25:35;1.50;;;1.20;;
15818;SDS011;8010;53.986;12.106;2022-11-09T01:28:01;1.53;;;1.00;;
15818;SDS011;8010;53.986;12.106;2022-11-09T01:30:27;4.43;;;1.33;;
15818;SDS011;8010;53.986;12.106;2022-11-09T01:32:53;3.20;;;1.10;;
15818;SDS011;8010;53.986;12.106;2022-11-09T01:35:19;1.70;;;1.40;;
15818;SDS011;8010;53.986;12.106;2022-11-09T01:37:44;1.73;;;1.00;;
15818;SDS011;8010;53.986;12.106;2022-11-09T01:40:10;2.83;;;1.20;;
15818;SDS011;8010;53.986;12.106;2022-11-09T01:42:36;3.13;;;1.20;;
15818;SDS011;8010;53.986;12.106;2022-11-09T01:47:44;3.30;;;1.07;;
15818;SDS011;8010;53.986;12.106;2022-11-09T01:50:14;1.60;;;1.30;;
15818;SDS011;8010;53.986;12.106;2022-11-09T01:52:44;2.87;;;1.00;;
15818;SDS011;8010;53.986;12.106;2022-11-09T01:55:14;2.70;;;1.10;;
15818;SDS011;8010;53.986;12.106;2022-11-09T02:00:33;2.93;;;1.13;;
15818;SDS011;8010;53.986;12.106;2022-11-09T02:03:04;1.60;;;1.20;;
15818;SDS011;8010;53.986;12.106;2022-11-09T02:05:35;2.83;;;1.00;;
15818;SDS011;8010;53.986;12.106;2022-11-09T02:08:04;1.43;;;0.97;;
15818;SDS011;8010;53.986;12.106;2022-11-09T02:10:32;2.03;;;1.07;;
15818;SDS011;8010;53.986;12.106;2022-11-09T02:13:11;1.63;;;1.07;;
15818;SDS011;8010;53.986;12.106;2022-11-09T02:15:39;3.10;;;1.10;;
15818;SDS011;8010;53.986;12.106;2022-11-09T02:18:05;1.77;;;1.20;;
15818;SDS011;8010;53.986;12.106;2022-11-09T02:20:39;2.10;;;0.90;;
15818;SDS011;8010;53.986;12.106;2022-11-09T02:23:09;1.63;;;1.13;;
15818;SDS011;8010;53.986;12.106;2022-11-09T02:25:35;2.80;;;1.20;;
15818;SDS011;8010;53.986;12.106;2022-11-09T02:28:01;1.93;;;1.23;;
15818;SDS011;8010;53.986;12.106;2022-11-09T02:30:26;1.10;;;1.00;;
15818;SDS011;8010;53.986;12.106;2022-11-09T02:32:52;1.87;;;1.10;;
15818;SDS011;8010;53.986;12.106;2022-11-09T02:35:17;1.73;;;1.10;;
15818;SDS011;8010;53.986;12.106;2022-11-09T02:37:47;1.17;;;0.97;;
15818;SDS011;8010;53.986;12.106;2022-11-09T02:40:18;1.20;;;0.90;;
15818;SDS011;8010;53.986;12.106;2022-11-09T02:42:46;1.30;;;1.10;;
15818;SDS011;8010;53.986;12.106;2022-11-09T02:45:12;1.10;;;0.80;;
15818;SDS011;8010;53.986;12.106;2022-11-09T02:47:37;4.00;;;1.30;;
15818;SDS011;8010;53.986;12.106;2022-11-09T02:50:03;5.10;;;1.30;;
15818;SDS011;8010;53.986;12.106;2022-11-09T02:52:29;3.10;;;1.10;;
15818;SDS011;8010;53.986;12.106;2022-11-09T02:54:54;1.87;;;1.40;;
15818;SDS011;8010;53.986;12.106;2022-11-09T02:57:20;1.57;;;1.30;;
15818;SDS011;8010;53.986;12.106;2022-11-09T02:59:45;2.73;;;1.40;;
15818;SDS011;8010;53.986;12.106;2022-11-09T03:02:11;2.30;;;1.30;;
15818;SDS011;8010;53.986;12.106;2022-11-09T03:04:36;2.57;;;1.00;;
15818;SDS011;8010;53.986;12.106;2022-11-09T03:07:02;2.43;;;1.50;;
15818;SDS011;8010;53.986;12.106;2022-11-09T03:09:28;2.50;;;1.10;;
15818;SDS011;8010;53.986;12.106;2022-11-09T03:11:53;3.40;;;1.30;;
15818;SDS011;8010;53.986;12.106;2022-11-09T03:14:19;1.87;;;1.10;;
15818;SDS011;8010;53.986;12.106;2022-11-09T03:16:44;2.50;;;1.03;;
15818;SDS011;8010;53.986;12.106;2022-11-09T03:19:10;1.57;;;0.97;;
15818;SDS011;8010;53.986;12.106;2022-11-09T03:21:35;2.73;;;1.30;;
15818;SDS011;8010;53.986;12.106;2022-11-09T03:24:01;2.37;;;1.40;;
15818;SDS011;8010;53.986;12.106;2022-11-09T03:26:26;3.87;;;1.20;;
15818;SDS011;8010;53.986;12.106;2022-11-09T03:28:52;1.27;;;1.00;;
15818;SDS011;8010;53.986;12.106;2022-11-09T03:31:17;4.93;;;1.40;;
15818;SDS011;8010;53.986;12.106;2022-11-09T03:33:43;1.37;;;0.90;;
15818;SDS011;8010;53.986;12.106;2022-11-09T03:36:09;2.33;;;1.07;;
15818;SDS011;8010;53.986;12.106;2022-11-09T03:38:35;1.57;;;1.20;;
15818;SDS011;8010;53.986;12.106;2022-11-09T03:41:00;2.83;;;1.30;;
15818;SDS011;8010;53.986;12.106;2022-11-09T03:43:30;4.20;;;1.27;;
15818;SDS011;8010;53.986;12.106;2022-11-09T03:45:55;1.77;;;1.17;;
15818;SDS011;8010;53.986;12.106;2022-11-09T03:48:21;2.37;;;1.23;;
15818;SDS011;8010;53.986;12.106;2022-11-09T03:50:47;3.40;;;1.40;;
15818;SDS011;8010;53.986;12.106;2022-11-09T03:53:12;2.20;;;1.37;;
15818;SDS011;8010;53.986;12.106;2022-11-09T03:55:38;2.20;;;1.10;;
15818;SDS011;8010;53.986;12.106;2022-11-09T03:58:04;4.20;;;1.30;;
15818;SDS011;8010;53.986;12.106;2022-11-09T04:00:31;1.60;;;1.20;;
15818;SDS011;8010;53.986;12.106;2022-11-09T04:02:57;1.60;;;1.07;;
15818;SDS011;8010;53.986;12.106;2022-11-09T04:05:23;2.10;;;0.97;;
15818;SDS011;8010;53.986;12.106;2022-11-09T04:07:50;2.73;;;1.30;;
15818;SDS011;8010;53.986;12.106;2022-11-09T04:10:20;2.03;;;1.20;;
15818;SDS011;8010;53.986;12.106;2022-11-09T04:12:47;3.13;;;1.47;;
15818;SDS011;8010;53.986;12.106;2022-11-09T04:15:13;1.50;;;1.07;;
15818;SDS011;8010;53.986;12.106;2022-11-09T04:17:39;1.90;;;1.40;;
15818;SDS011;8010;53.986;12.106;2022-11-09T04:20:05;3.43;;;1.23;;
15818;SDS011;8010;53.986;12.106;2022-11-09T04:22:32;1.50;;;1.30;;
15818;SDS011;8010;53.986;12.106;2022-11-09T04:24:58;2.73;;;1.23;;
15818;SDS011;8010;53.986;12.106;2022-11-09T04:27:23;1.80;;;1.30;;
15818;SDS011;8010;53.986;12.106;2022-11-09T04:29:49;2.13;;;1.10;;
15818;SDS011;8010;53.986;12.106;2022-11-09T04:32:14;1.40;;;1.10;;
15818;SDS011;8010;53.986;12.106;2022-11-09T04:34:40;2.87;;;1.30;;
15818;SDS011;8010;53.986;12.106;2022-11-09T04:37:06;1.20;;;1.10;;
15818;SDS011;8010;53.986;12.106;2022-11-09T04:39:32;1.53;;;1.00;;
15818;SDS011;8010;53.986;12.106;2022-11-09T04:41:58;1.40;;;1.00;;
15818;SDS011;8010;53.986;12.106;2022-11-09T04:44:23;1.90;;;1.03;;
15818;SDS011;8010;53.986;12.106;2022-11-09T04:46:49;1.67;;;1.40;;
15818;SDS011;8010;53.986;12.106;2022-11-09T04:49:14;2.27;;;1.40;;
15818;SDS011;8010;53.986;12.106;2022-11-09T04:51:40;3.17;;;1.33;;
15818;SDS011;8010;53.986;12.106;2022-11-09T04:54:05;2.00;;;1.33;;
15818;SDS011;8010;53.986;12.106;2022-11-09T04:56:31;1.90;;;1.07;;
15818;SDS011;8010;53.986;12.106;2022-11-09T04:58:56;1.60;;;1.40;;
15818;SDS011;8010;53.986;12.106;2022-11-09T05:01:22;3.10;;;1.23;;
15818;SDS011;8010;53.986;12.106;2022-11-09T05:03:47;2.77;;;1.33;;
15818;SDS011;8010;53.986;12.106;2022-11-09T05:06:13;1.63;;;1.20;;
15818;SDS011;8010;53.986;12.106;2022-11-09T05:09:01;1.67;;;1.10;;
15818;SDS011;8010;53.986;12.106;2022-11-09T05:11:29;2.80;;;1.50;;
15818;SDS011;8010;53.986;12.106;2022-11-09T05:13:55;1.93;;;1.50;;
15818;SDS011;8010;53.986;12.106;2022-11-09T05:16:21;2.83;;;1.60;;
15818;SDS011;8010;53.986;12.106;2022-11-09T05:18:47;3.00;;;1.27;;
15818;SDS011;8010;53.986;12.106;2022-11-09T05:21:13;2.53;;;1.30;;
15818;SDS011;8010;53.986;12.106;2022-11-09T05:23:39;1.23;;;1.00;;
15818;SDS011;8010;53.986;12.106;2022-11-09T05:26:22;2.40;;;1.40;;
15818;SDS011;8010;53.986;12.106;2022-11-09T05:28:49;1.60;;;1.40;;
15818;SDS011;8010;53.986;12.106;2022-11-09T05:31:14;2.53;;;1.40;;
15818;SDS011;8010;53.986;12.106;2022-11-09T05:33:40;2.40;;;1.10;;
15818;SDS011;8010;53.986;12.106;2022-11-09T05:36:05;2.80;;;1.40;;
15818;SDS011;8010;53.986;12.106;2022-11-09T05:38:31;3.70;;;1.30;;
15818;SDS011;8010;53.986;12.106;2022-11-09T05:40:57;2.83;;;1.40;;
15818;SDS011;8010;53.986;12.106;2022-11-09T05:43:22;2.17;;;1.27;;
15818;SDS011;8010;53.986;12.106;2022-11-09T05:45:48;1.70;;;1.20;;
15818;SDS011;8010;53.986;12.106;2022-11-09T05:48:14;3.53;;;1.30;;
15818;SDS011;8010;53.986;12.106;2022-11-09T05:50:41;1.97;;;1.50;;
15818;SDS011;8010;53.986;12.106;2022-11-09T05:53:06;3.83;;;1.90;;
15818;SDS011;8010;53.986;12.106;2022-11-09T05:55:32;3.20;;;1.87;;
15818;SDS011;8010;53.986;12.106;2022-11-09T05:57:58;3.80;;;1.70;;
15818;SDS011;8010;53.986;12.106;2022-11-09T06:00:23;1.83;;;1.33;;
15818;SDS011;8010;53.986;12.106;2022-11-09T06:02:49;1.83;;;1.33;;
15818;SDS011;8010;53.986;12.106;2022-11-09T06:05:14;2.67;;;1.70;;
15818;SDS011;8010;53.986;12.106;2022-11-09T06:07:40;2.63;;;1.47;;
15818;SDS011;8010;53.986;12.106;2022-11-09T06:10:06;3.17;;;1.60;;
15818;SDS011;8010;53.986;12.106;2022-11-09T06:12:33;2.00;;;1.30;;
15818;SDS011;8010;53.986;12.106;2022-11-09T06:14:58;2.27;;;1.60;;
15818;SDS011;8010;53.986;12.106;2022-11-09T06:17:24;1.43;;;1.00;;
15818;SDS011;8010;53.986;12.106;2022-11-09T06:19:49;1.70;;;1.30;;
15818;SDS011;8010;53.986;12.106;2022-11-09T06:22:15;1.30;;;1.10;;
15818;SDS011;8010;53.986;12.106;2022-11-09T06:24:40;2.43;;;1.10;;
15818;SDS011;8010;53.986;12.106;2022-11-09T06:27:06;2.57;;;1.40;;
15818;SDS011;8010;53.986;12.106;2022-11-09T06:29:31;5.20;;;1.57;;
15818;SDS011;8010;53.986;12.106;2022-11-09T06:31:57;3.50;;;1.60;;
15818;SDS011;8010;53.986;12.106;2022-11-09T06:34:22;2.97;;;1.40;;
15818;SDS011;8010;53.986;12.106;2022-11-09T06:36:48;2.83;;;1.33;;
15818;SDS011;8010;53.986;12.106;2022-11-09T06:39:14;1.80;;;1.20;;
15818;SDS011;8010;53.986;12.106;2022-11-09T06:41:39;3.23;;;1.30;;
15818;SDS011;8010;53.986;12.106;2022-11-09T06:44:05;1.90;;;1.30;;
15818;SDS011;8010;53.986;12.106;2022-11-09T06:46:31;1.50;;;1.17;;
15818;SDS011;8010;53.986;12.106;2022-11-09T06:48:57;2.73;;;1.47;;
15818;SDS011;8010;53.986;12.106;2022-11-09T06:51:23;3.50;;;1.60;;
15818;SDS011;8010;53.986;12.106;2022-11-09T06:53:48;1.73;;;1.30;;
15818;SDS011;8010;53.986;12.106;2022-11-09T06:56:14;1.67;;;1.10;;
15818;SDS011;8010;53.986;12.106;2022-11-09T06:58:40;4.53;;;2.03;;
15818;SDS011;8010;53.986;12.106;2022-11-09T07:01:06;3.13;;;1.50;;
15818;SDS011;8010;53.986;12.106;2022-11-09T07:03:33;2.37;;;1.47;;
15818;SDS011;8010;53.986;12.106;2022-11-09T07:06:02;1.40;;;1.07;;
15818;SDS011;8010;53.986;12.106;2022-11-09T07:08:29;3.53;;;1.50;;
15818;SDS011;8010;53.986;12.106;2022-11-09T07:10:55;2.30;;;1.60;;
15818;SDS011;8010;53.986;12.106;2022-11-09T07:13:30;1.77;;;1.50;;
15818;SDS011;8010;53.986;12.106;2022-11-09T07:15:55;3.10;;;1.40;;
15818;SDS011;8010;53.986;12.106;2022-11-09T07:18:21;2.20;;;1.40;;
15818;SDS011;8010;53.986;12.106;2022-11-09T07:20:46;1.40;;;1.10;;
15818;SDS011;8010;53.986;12.106;2022-11-09T07:23:12;3.13;;;1.40;;
15818;SDS011;8010;53.986;12.106;2022-11-09T07:25:37;2.00;;;1.43;;
15818;SDS011;8010;53.986;12.106;2022-11-09T07:28:06;2.20;;;1.20;;
15818;SDS011;8010;53.986;12.106;2022-11-09T07:30:34;2.33;;;1.10;;
15818;SDS011;8010;53.986;12.106;2022-11-09T07:33:00;2.33;;;1.20;;
15818;SDS011;8010;53.986;12.106;2022-11-09T07:35:26;1.67;;;1.30;;
15818;SDS011;8010;53.986;12.106;2022-11-09T07:37:52;1.53;;;1.20;;
15818;SDS011;8010;53.986;12.106;2022-11-09T07:40:18;2.70;;;1.60;;
15818;SDS011;8010;53.986;12.106;2022-11-09T07:42:44;4.50;;;1.50;;
15818;SDS011;8010;53.986;12.106;2022-11-09T07:45:10;2.27;;;1.20;;
15818;SDS011;8010;53.986;12.106;2022-11-09T07:47:35;2.47;;;1.03;;
15818;SDS011;8010;53.986;12.106;2022-11-09T07:50:01;1.30;;;1.07;;
15818;SDS011;8010;53.986;12.106;2022-11-09T07:52:27;2.37;;;1.13;;
15818;SDS011;8010;53.986;12.106;2022-11-09T07:54:53;3.30;;;1.47;;
15818;SDS011;8010;53.986;12.106;2022-11-09T07:57:18;1.93;;;1.33;;
15818;SDS011;8010;53.986;12.106;2022-11-09T07:59:44;2.50;;;1.27;;
15818;SDS011;8010;53.986;12.106;2022-11-09T08:02:09;2.57;;;1.43;;
15818;SDS011;8010;53.986;12.106;2022-11-09T08:04:35;2.30;;;1.23;;
15818;SDS011;8010;53.986;12.106;2022-11-09T08:07:00;2.03;;;1.43;;
15818;SDS011;8010;53.986;12.106;2022-11-09T08:09:26;2.67;;;1.43;;
15818;SDS011;8010;53.986;12.106;2022-11-09T08:11:52;2.37;;;1.10;;
15818;SDS011;8010;53.986;12.106;2022-11-09T08:14:18;2.53;;;1.20;;
15818;SDS011;8010;53.986;12.106;2022-11-09T08:16:43;2.33;;;1.37;;
15818;SDS011;8010;53.986;12.106;2022-11-09T08:19:09;2.17;;;1.53;;
15818;SDS011;8010;53.986;12.106;2022-11-09T08:21:35;1.67;;;1.30;;
15818;SDS011;8010;53.986;12.106;2022-11-09T08:24:01;2.17;;;1.23;;
15818;SDS011;8010;53.986;12.106;2022-11-09T08:26:27;4.13;;;1.20;;
15818;SDS011;8010;53.986;12.106;2022-11-09T08:28:53;2.80;;;1.30;;
15818;SDS011;8010;53.986;12.106;2022-11-09T08:31:19;1.30;;;1.10;;
15818;SDS011;8010;53.986;12.106;2022-11-09T08:33:45;1.57;;;1.00;;
15818;SDS011;8010;53.986;12.106;2022-11-09T08:36:11;2.27;;;1.17;;
15818;SDS011;8010;53.986;12.106;2022-11-09T08:38:41;2.23;;;1.30;;
15818;SDS011;8010;53.986;12.106;2022-11-09T08:41:08;1.60;;;1.20;;
15818;SDS011;8010;53.986;12.106;2022-11-09T08:43:34;1.00;;;0.90;;
15818;SDS011;8010;53.986;12.106;2022-11-09T08:46:00;2.97;;;1.10;;
15818;SDS011;8010;53.986;12.106;2022-11-09T08:48:25;2.13;;;1.67;;
15818;SDS011;8010;53.986;12.106;2022-11-09T08:50:55;3.30;;;0.97;;
15818;SDS011;8010;53.986;12.106;2022-11-09T08:53:22;3.90;;;1.27;;
15818;SDS011;8010;53.986;12.106;2022-11-09T08:55:49;1.70;;;1.00;;
15818;SDS011;8010;53.986;12.106;2022-11-09T08:58:15;1.60;;;0.97;;
15818;SDS011;8010;53.986;12.106;2022-11-09T09:00:41;1.83;;;1.03;;
15818;SDS011;8010;53.986;12.106;2022-11-09T09:03:07;1.60;;;1.10;;
15818;SDS011;8010;53.986;12.106;2022-11-09T09:05:33;2.63;;;1.10;;
15818;SDS011;8010;53.986;12.106;2022-11-09T09:07:59;1.17;;;1.00;;
15818;SDS011;8010;53.986;12.106;2022-11-09T09:10:26;2.37;;;1.10;;
15818;SDS011;8010;53.986;12.106;2022-11-09T09:12:51;2.83;;;1.00;;
15818;SDS011;8010;53.986;12.106;2022-11-09T09:15:17;1.40;;;0.90;;
15818;SDS011;8010;53.986;12.106;2022-11-09T09:17:43;1.70;;;0.90;;
15818;SDS011;8010;53.986;12.106;2022-11-09T09:20:09;2.33;;;1.20;;
15818;SDS011;8010;53.986;12.106;2022-11-09T09:22:34;3.17;;;1.20;;
15818;SDS011;8010;53.986;12.106;2022-11-09T09:25:00;1.63;;;0.93;;
15818;SDS011;8010;53.986;12.106;2022-11-09T09:27:26;1.50;;;0.90;;
15818;SDS011;8010;53.986;12.106;2022-11-09T09:29:53;3.60;;;1.17;;
15818;SDS011;8010;53.986;12.106;2022-11-09T09:32:19;5.00;;;1.30;;
15818;SDS011;8010;53.986;12.106;2022-11-09T09:34:44;3.47;;;1.10;;
15818;SDS011;8010;53.986;12.106;2022-11-09T09:37:10;2.40;;;1.00;;
15818;SDS011;8010;53.986;12.106;2022-11-09T09:39:35;1.37;;;0.90;;
15818;SDS011;8010;53.986;12.106;2022-11-09T09:42:03;3.07;;;0.80;;
15818;SDS011;8010;53.986;12.106;2022-11-09T09:50:00;2.20;;;1.00;;
15818;SDS011;8010;53.986;12.106;2022-11-09T09:52:46;2.73;;;0.93;;
15818;SDS011;8010;53.986;12.106;2022-11-09T09:55:39;1.23;;;0.83;;
15818;SDS011;8010;53.986;12.106;2022-11-09T10:00:36;1.97;;;1.10;;
15818;SDS011;8010;53.986;12.106;2022-11-09T10:03:04;2.67;;;1.00;;
15818;SDS011;8010;53.986;12.106;2022-11-09T10:05:36;2.50;;;0.97;;
15818;SDS011;8010;53.986;12.106;2022-11-09T10:08:15;1.23;;;0.90;;
15818;SDS011;8010;53.986;12.106;2022-11-09T10:11:19;2.43;;;0.97;;
15818;SDS011;8010;53.986;12.106;2022-11-09T10:26:56;2.60;;;1.03;;
15818;SDS011;8010;53.986;12.106;2022-11-09T10:29:43;2.50;;;1.10;;
15818;SDS011;8010;53.986;12.106;2022-11-09T10:32:13;1.10;;;0.90;;
15818;SDS011;8010;53.986;12.106;2022-11-09T10:37:49;4.30;;;1.43;;
15818;SDS011;8010;53.986;12.106;2022-11-09T10:43:09;3.17;;;1.00;;
15818;SDS011;8010;53.986;12.106;2022-11-09T10:45:37;3.60;;;0.97;;
15818;SDS011;8010;53.986;12.106;2022-11-09T10:48:05;1.33;;;1.00;;
15818;SDS011;8010;53.986;12.106;2022-11-09T10:50:33;2.67;;;1.13;;
15818;SDS011;8010;53.986;12.106;2022-11-09T10:53:19;3.70;;;1.20;;
15818;SDS011;8010;53.986;12.106;2022-11-09T11:00:54;3.00;;;1.23;;
15818;SDS011;8010;53.986;12.106;2022-11-09T11:03:29;3.50;;;1.23;;
15818;SDS011;8010;53.986;12.106;2022-11-09T11:06:02;3.93;;;0.90;;
15818;SDS011;8010;53.986;12.106;2022-11-09T11:08:39;1.77;;;1.17;;
15818;SDS011;8010;53.986;12.106;2022-11-09T11:11:12;3.77;;;1.10;;
15818;SDS011;8010;53.986;12.106;2022-11-09T11:13:44;5.10;;;1.00;;
15818;SDS011;8010;53.986;12.106;2022-11-09T11:16:14;2.63;;;1.10;;
15818;SDS011;8010;53.986;12.106;2022-11-09T11:18:49;2.23;;;1.00;;
15818;SDS011;8010;53.986;12.106;2022-11-09T11:21:16;2.43;;;1.07;;
15818;SDS011;8010;53.986;12.106;2022-11-09T11:23:43;5.17;;;1.10;;
15818;SDS011;8010;53.986;12.106;2022-11-09T11:32:15;2.17;;;1.50;;
15818;SDS011;8010;53.986;12.106;2022-11-09T11:34:42;3.03;;;0.93;;
15818;SDS011;8010;53.986;12.106;2022-11-09T11:39:52;1.77;;;0.93;;
15818;SDS011;8010;53.986;12.106;2022-11-09T11:46:03;3.73;;;1.40;;
15818;SDS011;8010;53.986;12.106;2022-11-09T11:48:46;6.20;;;1.17;;
15818;SDS011;8010;53.986;12.106;2022-11-09T11:51:23;2.83;;;1.03;;
15818;SDS011;8010;53.986;12.106;2022-11-09T11:56:31;3.13;;;1.00;;
15818;SDS011;8010;53.986;12.106;2022-11-09T12:02:26;1.60;;;0.93;;
15818;SDS011;8010;53.986;12.106;2022-11-09T12:07:58;2.37;;;1.03;;
15818;SDS011;8010;53.986;12.106;2022-11-09T12:16:35;2.63;;;1.07;;
15818;SDS011;8010;53.986;12.106;2022-11-09T12:28:00;2.27;;;0.90;;
15818;SDS011;8010;53.986;12.106;2022-11-09T12:30:43;1.97;;;0.90;;
15818;SDS011;8010;53.986;12.106;2022-11-09T12:33:55;2.10;;;1.20;;
15818;SDS011;8010;53.986;12.106;2022-11-09T12:36:32;2.40;;;1.00;;
15818;SDS011;8010;53.986;12.106;2022-11-09T12:39:13;2.70;;;1.17;;
15818;SDS011;8010;53.986;12.106;2022-11-09T12:41:46;3.73;;;1.30;;
15818;SDS011;8010;53.986;12.106;2022-11-09T12:44:14;2.30;;;0.97;;
15818;SDS011;8010;53.986;12.106;2022-11-09T12:47:01;3.53;;;1.10;;
15818;SDS011;8010;53.986;12.106;2022-11-09T12:49:32;1.93;;;1.00;;
15818;SDS011;8010;53.986;12.106;2022-11-09T12:52:03;4.70;;;1.17;;
15818;SDS011;8010;53.986;12.106;2022-11-09T12:54:36;1.13;;;0.70;;
15818;SDS011;8010;53.986;12.106;2022-11-09T12:57:10;1.67;;;0.80;;
15818;SDS011;8010;53.986;12.106;2022-11-09T12:59:44;2.20;;;0.80;;
15818;SDS011;8010;53.986;12.106;2022-11-09T13:02:19;2.47;;;0.93;;
15818;SDS011;8010;53.986;12.106;2022-11-09T13:04:55;2.87;;;0.97;;
15818;SDS011;8010;53.986;12.106;2022-11-09T13:07:29;3.13;;;0.90;;
15818;SDS011;8010;53.986;12.106;2022-11-09T13:10:20;2.47;;;1.00;;
15818;SDS011;8010;53.986;12.106;2022-11-09T13:12:50;2.23;;;1.00;;
15818;SDS011;8010;53.986;12.106;2022-11-09T13:15:31;3.57;;;1.30;;
15818;SDS011;8010;53.986;12.106;2022-11-09T13:23:02;2.07;;;0.87;;
15818;SDS011;8010;53.986;12.106;2022-11-09T13:30:52;2.33;;;0.80;;
15818;SDS011;8010;53.986;12.106;2022-11-09T13:33:19;2.37;;;1.13;;
15818;SDS011;8010;53.986;12.106;2022-11-09T13:38:19;3.37;;;0.97;;
15818;SDS011;8010;53.986;12.106;2022-11-09T13:40:49;1.93;;;0.90;;
15818;SDS011;8010;53.986;12.106;2022-11-09T13:43:28;1.67;;;1.00;;
15818;SDS011;8010;53.986;12.106;2022-11-09T13:45:57;2.17;;;0.87;;
15818;SDS011;8010;53.986;12.106;2022-11-09T13:48:44;2.50;;;0.93;;
15818;SDS011;8010;53.986;12.106;2022-11-09T13:51:23;1.33;;;0.90;;
15818;SDS011;8010;53.986;12.106;2022-11-09T13:56:55;2.57;;;1.00;;
15818;SDS011;8010;53.986;12.106;2022-11-09T13:59:25;2.30;;;0.70;;
15818;SDS011;8010;53.986;12.106;2022-11-09T14:01:56;2.13;;;0.90;;
15818;SDS011;8010;53.986;12.106;2022-11-09T14:06:57;3.13;;;0.90;;
15818;SDS011;8010;53.986;12.106;2022-11-09T14:09:26;1.87;;;0.73;;
15818;SDS011;8010;53.986;12.106;2022-11-09T14:15:04;2.10;;;0.87;;
15818;SDS011;8010;53.986;12.106;2022-11-09T14:23:01;1.43;;;0.77;;
15818;SDS011;8010;53.986;12.106;2022-11-09T14:25:26;3.67;;;1.10;;
15818;SDS011;8010;53.986;12.106;2022-11-09T14:27:55;2.00;;;0.80;;
15818;SDS011;8010;53.986;12.106;2022-11-09T14:30:24;2.00;;;1.03;;
15818;SDS011;8010;53.986;12.106;2022-11-09T14:32:55;2.87;;;1.00;;
15818;SDS011;8010;53.986;12.106;2022-11-09T14:35:26;1.43;;;0.97;;
15818;SDS011;8010;53.986;12.106;2022-11-09T14:37:55;3.40;;;1.10;;
15818;SDS011;8010;53.986;12.106;2022-11-09T14:40:24;2.33;;;1.00;;
15818;SDS011;8010;53.986;12.106;2022-11-09T14:42:52;2.97;;;0.80;;
15818;SDS011;8010;53.986;12.106;2022-11-09T14:45:47;2.60;;;0.90;;
15818;SDS011;8010;53.986;12.106;2022-11-09T14:48:15;2.43;;;1.40;;
15818;SDS011;8010;53.986;12.106;2022-11-09T14:50:42;1.87;;;1.07;;
15818;SDS011;8010;53.986;12.106;2022-11-09T14:53:12;1.73;;;0.90;;
15818;SDS011;8010;53.986;12.106;2022-11-09T14:55:40;1.93;;;0.90;;
15818;SDS011;8010;53.986;12.106;2022-11-09T14:58:08;1.63;;;0.87;;
15818;SDS011;8010;53.986;12.106;2022-11-09T15:00:36;2.97;;;1.10;;
15818;SDS011;8010;53.986;12.106;2022-11-09T15:03:21;3.03;;;1.03;;
15818;SDS011;8010;53.986;12.106;2022-11-09T15:05:49;3.80;;;1.00;;
15818;SDS011;8010;53.986;12.106;2022-11-09T15:08:31;3.37;;;1.20;;
15818;SDS011;8010;53.986;12.106;2022-11-09T15:10:57;5.17;;;1.17;;
15818;SDS011;8010;53.986;12.106;2022-11-09T15:13:36;5.87;;;1.40;;
15818;SDS011;8010;53.986;12.106;2022-11-09T15:16:04;2.00;;;1.00;;
15818;SDS011;8010;53.986;12.106;2022-11-09T15:18:31;4.50;;;1.30;;
15818;SDS011;8010;53.986;12.106;2022-11-09T15:21:18;2.30;;;1.00;;
15818;SDS011;8010;53.986;12.106;2022-11-09T15:26:35;2.33;;;1.10;;
15818;SDS011;8010;53.986;12.106;2022-11-09T15:34:40;3.70;;;1.73;;
15818;SDS011;8010;53.986;12.106;2022-11-09T15:37:27;2.90;;;1.70;;
15818;SDS011;8010;53.986;12.106;2022-11-09T15:39:55;5.00;;;1.50;;
15818;SDS011;8010;53.986;12.106;2022-11-09T15:42:22;3.47;;;1.57;;
15818;SDS011;8010;53.986;12.106;2022-11-09T15:44:56;5.00;;;1.80;;
15818;SDS011;8010;53.986;12.106;2022-11-09T15:47:28;3.13;;;1.70;;
15818;SDS011;8010;53.986;12.106;2022-11-09T15:49:59;6.20;;;1.80;;
15818;SDS011;8010;53.986;12.106;2022-11-09T15:52:27;5.03;;;1.33;;
15818;SDS011;8010;53.986;12.106;2022-11-09T15:54:53;2.60;;;1.67;;
15818;SDS011;8010;53.986;12.106;2022-11-09T15:57:19;4.03;;;2.23;;
15818;SDS011;8010;53.986;12.106;2022-11-09T15:59:46;2.27;;;1.83;;
15818;SDS011;8010;53.986;12.106;2022-11-09T16:02:12;2.50;;;1.60;;
15818;SDS011;8010;53.986;12.106;2022-11-09T16:04:38;2.50;;;1.73;;
15818;SDS011;8010;53.986;12.106;2022-11-09T16:07:04;3.83;;;1.60;;
15818;SDS011;8010;53.986;12.106;2022-11-09T16:09:30;2.17;;;1.30;;
15818;SDS011;8010;53.986;12.106;2022-11-09T16:11:56;2.93;;;1.13;;
15818;SDS011;8010;53.986;12.106;2022-11-09T16:14:22;3.60;;;1.70;;
15818;SDS011;8010;53.986;12.106;2022-11-09T16:16:48;3.47;;;1.70;;
15818;SDS011;8010;53.986;12.106;2022-11-09T16:19:14;3.57;;;1.70;;
15818;SDS011;8010;53.986;12.106;2022-11-09T16:21:41;6.27;;;3.13;;
15818;SDS011;8010;53.986;12.106;2022-11-09T16:24:06;4.43;;;2.30;;
15818;SDS011;8010;53.986;12.106;2022-11-09T16:26:32;3.67;;;2.20;;
15818;SDS011;8010;53.986;12.106;2022-11-09T16:28:58;4.13;;;2.20;;
15818;SDS011;8010;53.986;12.106;2022-11-09T16:31:24;2.37;;;1.83;;
15818;SDS011;8010;53.986;12.106;2022-11-09T16:33:49;4.17;;;2.60;;
15818;SDS011;8010;53.986;12.106;2022-11-09T16:36:16;2.57;;;1.60;;
15818;SDS011;8010;53.986;12.106;2022-11-09T16:38:48;3.40;;;1.77;;
15818;SDS011;8010;53.986;12.106;2022-11-09T16:41:15;3.00;;;1.60;;
15818;SDS011;8010;53.986;12.106;2022-11-09T16:43:42;2.87;;;1.33;;
15818;SDS011;8010;53.986;12.106;2022-11-09T16:46:09;4.07;;;1.43;;